Time;durP1;ratioP1;P1;durP2;ratioP2;P2;SDS_P1;SDS_P2;PMS_P1;PMS_P2;Temp;Humidity;BMP_temperature;BMP_pressure;BME280_temperature;BME280_humidity;BME280_pressure;Samples;Min_cycle;Max_cycle;Signal;HPM_P1;HPM_P2
2022/03/28 00:01:10;;;;;;;18.60;10.00;;;6.10;97.30;;;;;;4989036;28;20453;-77
2022/03/28 00:03:36;;;;;;;20.53;10.60;;;6.10;97.30;;;;;;4972650;28;20206;-76
2022/03/28 00:06:03;;;;;;;17.70;10.47;;;6.10;97.30;;;;;;4973723;28;20237;-77
2022/03/28 00:08:29;;;;;;;24.13;11.50;;;6.10;97.30;;;;;;4973858;28;20424;-77
2022/03/28 00:10:55;;;;;;;33.57;12.40;;;6.10;97.30;;;;;;4988573;28;20504;-77
2022/03/28 00:13:21;;;;;;;19.40;10.33;;;6.10;97.30;;;;;;4972268;28;20218;-77
2022/03/28 00:15:47;;;;;;;18.43;9.93;;;6.10;97.30;;;;;;4973487;28;21302;-77
2022/03/28 00:18:13;;;;;;;20.30;10.43;;;6.00;97.30;;;;;;4972372;28;20229;-76
2022/03/28 00:20:39;;;;;;;18.93;9.30;;;6.00;97.30;;;;;;4988533;28;20217;-77
2022/03/28 00:23:05;;;;;;;21.73;9.80;;;6.00;97.30;;;;;;4988447;28;20453;-78
2022/03/28 00:25:31;;;;;;;28.07;11.60;;;6.00;97.30;;;;;;4972057;28;20418;-76
2022/03/28 00:27:57;;;;;;;22.27;10.13;;;5.90;97.30;;;;;;4988115;28;20418;-75
2022/03/28 00:30:23;;;;;;;18.43;10.03;;;5.90;97.30;;;;;;5002035;28;20437;-77
2022/03/28 00:32:49;;;;;;;24.30;11.40;;;5.80;97.30;;;;;;4990758;28;20269;-76
2022/03/28 00:35:15;;;;;;;22.17;10.73;;;5.70;97.30;;;;;;4991754;28;20205;-77
2022/03/28 00:37:41;;;;;;;19.00;10.80;;;5.70;97.30;;;;;;4992655;28;20174;-77
2022/03/28 00:40:09;;;;;;;20.60;10.00;;;5.70;97.30;;;;;;4992280;28;20190;-79
2022/03/28 00:42:36;;;;;;;19.50;9.80;;;5.60;97.30;;;;;;4991895;28;20946;-78
2022/03/28 00:45:04;;;;;;;18.43;10.03;;;5.60;97.30;;;;;;5007400;28;20449;-77
2022/03/28 00:47:30;;;;;;;24.50;10.87;;;5.60;97.30;;;;;;4992197;28;20431;-77
2022/03/28 00:49:56;;;;;;;18.33;10.13;;;5.60;97.30;;;;;;5007310;28;20423;-77
2022/03/28 00:52:22;;;;;;;22.03;11.13;;;5.50;97.30;;;;;;4990799;28;20421;-76
2022/03/28 00:54:48;;;;;;;19.00;9.60;;;5.50;97.30;;;;;;4990633;28;20476;-76
2022/03/28 00:57:13;;;;;;;19.80;9.57;;;5.50;97.30;;;;;;4991120;28;20182;-78
2022/03/28 00:59:39;;;;;;;17.23;9.43;;;5.50;97.30;;;;;;4991209;28;20193;-77
2022/03/28 01:02:06;;;;;;;18.50;9.00;;;5.50;97.30;;;;;;4990928;28;20236;-78
2022/03/28 01:04:31;;;;;;;28.13;9.87;;;5.40;97.30;;;;;;4990801;28;20233;-78
2022/03/28 01:06:57;;;;;;;19.83;11.00;;;5.40;97.30;;;;;;4990844;28;20912;-76
2022/03/28 01:09:23;;;;;;;21.00;9.60;;;5.30;97.30;;;;;;4990797;28;20185;-78
2022/03/28 01:11:51;;;;;;;19.23;9.17;;;5.30;97.30;;;;;;5007214;28;20331;-76
2022/03/28 01:14:16;;;;;;;18.43;9.50;;;5.30;97.30;;;;;;4990621;28;20248;-76
2022/03/28 01:19:26;;;;;;;19.77;9.60;;;5.20;97.30;;;;;;4992421;28;20580;-76
2022/03/28 01:21:52;;;;;;;19.90;10.03;;;5.20;97.30;;;;;;4992035;28;20424;-76
2022/03/28 01:24:18;;;;;;;20.03;9.80;;;5.20;97.30;;;;;;4991747;28;20433;-77
2022/03/28 01:26:45;;;;;;;17.70;8.73;;;5.20;97.30;;;;;;4990569;28;20178;-77
2022/03/28 01:29:12;;;;;;;15.43;8.73;;;5.20;97.30;;;;;;4990488;28;20417;-76
2022/03/28 01:31:39;;;;;;;15.93;9.23;;;5.10;97.30;;;;;;4990257;28;20429;-77
2022/03/28 01:34:06;;;;;;;14.53;8.10;;;5.10;97.30;;;;;;4990377;28;20479;-77
2022/03/28 01:36:32;;;;;;;18.30;9.00;;;5.10;97.30;;;;;;4990226;28;20414;-76
2022/03/28 01:38:57;;;;;;;20.83;10.27;;;5.10;97.30;;;;;;4990194;28;20419;-76
2022/03/28 01:41:23;;;;;;;15.37;8.87;;;5.00;97.30;;;;;;4990137;28;20409;-78
2022/03/28 01:43:48;;;;;;;24.00;9.17;;;5.00;97.30;;;;;;4990000;28;20198;-77
2022/03/28 01:46:14;;;;;;;18.90;9.60;;;5.00;97.30;;;;;;5006274;28;20449;-77
2022/03/28 01:48:40;;;;;;;18.53;10.60;;;4.90;97.30;;;;;;4990083;28;20196;-76
2022/03/28 01:51:05;;;;;;;21.63;9.90;;;4.90;97.30;;;;;;4991326;28;20512;-77
2022/03/28 01:53:31;;;;;;;23.07;10.90;;;4.90;97.30;;;;;;4989911;28;20316;-77
2022/03/28 01:55:57;;;;;;;24.10;11.30;;;4.90;97.30;;;;;;4990034;28;20182;-77
2022/03/28 01:58:22;;;;;;;17.67;9.20;;;4.90;97.30;;;;;;4990021;28;20173;-75
2022/03/28 02:00:48;;;;;;;23.43;10.47;;;4.80;97.30;;;;;;5006527;28;20204;-77
2022/03/28 02:03:13;;;;;;;21.67;10.10;;;4.70;97.30;;;;;;4990932;28;20194;-76
2022/03/28 02:05:39;;;;;;;19.20;9.73;;;4.70;97.30;;;;;;5005998;28;20679;-76
2022/03/28 02:08:05;;;;;;;23.13;10.40;;;4.80;97.30;;;;;;4990955;28;20541;-77
2022/03/28 02:10:30;;;;;;;21.00;9.43;;;4.80;97.30;;;;;;4991070;28;20546;-77
2022/03/28 02:12:56;;;;;;;19.67;10.07;;;4.80;97.30;;;;;;4989382;28;20425;-77
2022/03/28 02:15:23;;;;;;;24.50;9.93;;;4.70;97.30;;;;;;4989892;28;20185;-77
2022/03/28 02:17:49;;;;;;;20.47;10.67;;;4.70;97.30;;;;;;4990383;28;20181;-77
2022/03/28 02:20:15;;;;;;;23.00;11.40;;;4.70;97.30;;;;;;5009993;28;20474;-77
2022/03/28 02:22:42;;;;;;;20.97;10.17;;;4.70;97.30;;;;;;5009168;28;20989;-76
2022/03/28 02:25:10;;;;;;;23.27;10.40;;;4.70;97.30;;;;;;5010367;28;20448;-76
2022/03/28 02:27:36;;;;;;;19.40;10.17;;;4.60;97.30;;;;;;5009028;28;20416;-77
2022/03/28 02:30:04;;;;;;;17.70;9.70;;;4.60;97.30;;;;;;5010315;28;20451;-77
2022/03/28 02:32:30;;;;;;;15.30;8.50;;;4.50;97.30;;;;;;5008682;28;20473;-76
2022/03/28 02:34:55;;;;;;;18.37;8.80;;;4.50;97.30;;;;;;5009003;28;20460;-77
2022/03/28 02:37:21;;;;;;;17.07;9.30;;;4.50;97.30;;;;;;5010414;28;20169;-76
2022/03/28 02:39:47;;;;;;;18.30;9.80;;;4.40;97.30;;;;;;5010202;28;20174;-77
2022/03/28 02:42:12;;;;;;;17.30;10.00;;;4.40;97.30;;;;;;5009196;28;20216;-75
2022/03/28 02:44:38;;;;;;;23.93;11.33;;;4.40;97.30;;;;;;5008808;28;20291;-76
2022/03/28 02:47:04;;;;;;;23.33;12.07;;;4.40;97.30;;;;;;5009926;28;20416;-77
2022/03/28 02:49:30;;;;;;;24.07;12.47;;;4.30;97.30;;;;;;5010249;28;20655;-76
2022/03/28 02:51:55;;;;;;;23.30;10.70;;;4.30;97.30;;;;;;5006058;28;20460;-75
2022/03/28 02:54:22;;;;;;;20.03;10.30;;;4.30;97.30;;;;;;4991458;28;20202;-77
2022/03/28 02:56:48;;;;;;;19.13;9.60;;;4.30;97.30;;;;;;4993040;28;20178;-75
2022/03/28 02:59:13;;;;;;;16.23;9.27;;;4.30;97.30;;;;;;4993509;28;20472;-77
2022/03/28 03:01:40;;;;;;;20.93;10.80;;;4.30;97.30;;;;;;5049711;22;20504;-70
2022/03/28 03:04:05;;;;;;;24.37;10.93;;;4.30;97.30;;;;;;4993688;28;20192;-70
2022/03/28 03:06:31;;;;;;;20.53;11.70;;;4.30;97.30;;;;;;5009208;28;20512;-71
2022/03/28 03:08:56;;;;;;;26.53;10.77;;;4.30;97.30;;;;;;5008953;28;20178;-70
2022/03/28 03:11:22;;;;;;;24.40;12.60;;;4.30;97.30;;;;;;4994170;28;20640;-70
2022/03/28 03:13:49;;;;;;;31.60;12.37;;;4.30;97.30;;;;;;4992305;28;20208;-71
2022/03/28 03:16:15;;;;;;;25.33;12.57;;;4.20;97.30;;;;;;4993716;28;20452;-71
2022/03/28 03:18:41;;;;;;;29.50;13.70;;;4.20;97.30;;;;;;4992414;28;20478;-70
2022/03/28 03:21:07;;;;;;;22.17;10.23;;;4.20;97.30;;;;;;4992364;28;20421;-70
2022/03/28 03:23:33;;;;;;;24.77;11.30;;;4.20;97.30;;;;;;4993504;28;20718;-71
2022/03/28 03:25:58;;;;;;;25.50;11.43;;;4.10;97.30;;;;;;4993447;28;20174;-71
2022/03/28 03:28:24;;;;;;;23.87;12.03;;;4.10;97.30;;;;;;4992350;28;20169;-70
2022/03/28 03:30:49;;;;;;;24.13;12.10;;;4.10;97.30;;;;;;4993491;28;20239;-70
2022/03/28 03:33:15;;;;;;;24.00;10.27;;;4.10;97.30;;;;;;4992092;28;20276;-70
2022/03/28 03:35:41;;;;;;;24.93;11.63;;;4.10;97.30;;;;;;4991682;28;20178;-70
2022/03/28 03:38:07;;;;;;;21.37;12.50;;;4.10;97.30;;;;;;5008651;28;20281;-70
2022/03/28 03:40:32;;;;;;;22.07;10.93;;;4.00;97.30;;;;;;4993043;28;20416;-70
2022/03/28 03:42:58;;;;;;;22.60;11.53;;;4.00;97.30;;;;;;4993062;28;20245;-70
2022/03/28 03:45:24;;;;;;;22.00;11.63;;;3.90;97.30;;;;;;4993159;28;20174;-70
2022/03/28 03:47:51;;;;;;;22.40;11.87;;;3.90;97.30;;;;;;4992024;28;20261;-71
2022/03/28 03:50:16;;;;;;;23.17;11.17;;;3.90;97.30;;;;;;5008091;28;20223;-70
2022/03/28 03:52:42;;;;;;;22.20;11.03;;;3.90;97.30;;;;;;4993121;28;20445;-71
2022/03/28 03:55:08;;;;;;;21.83;10.67;;;3.90;97.30;;;;;;4991652;28;20213;-70
2022/03/28 03:57:34;;;;;;;20.97;11.00;;;3.90;97.30;;;;;;5008025;28;20702;-70
2022/03/28 03:59:59;;;;;;;22.00;11.17;;;3.80;97.30;;;;;;4992788;28;21053;-71
2022/03/28 04:02:25;;;;;;;21.90;10.60;;;3.80;97.30;;;;;;4992903;28;20261;-71
2022/03/28 04:04:50;;;;;;;22.90;10.40;;;3.80;97.30;;;;;;5007737;28;20210;-70
2022/03/28 04:07:16;;;;;;;18.63;9.70;;;3.80;97.30;;;;;;4991691;28;20181;-70
2022/03/28 04:09:42;;;;;;;21.87;10.53;;;3.80;97.30;;;;;;5007679;28;20188;-70
2022/03/28 04:12:08;;;;;;;19.17;9.70;;;3.80;97.30;;;;;;4991189;28;20252;-70
2022/03/28 04:14:34;;;;;;;21.53;10.87;;;3.80;97.30;;;;;;5007331;28;20205;-70
2022/03/28 04:17:00;;;;;;;20.57;11.50;;;3.70;97.30;;;;;;4992456;28;20496;-70
2022/03/28 04:19:25;;;;;;;21.37;10.03;;;3.70;97.30;;;;;;5007339;28;20352;-70
2022/03/28 04:21:51;;;;;;;23.33;12.07;;;3.70;97.30;;;;;;4990875;28;20189;-70
2022/03/28 04:24:17;;;;;;;25.03;11.93;;;3.70;97.30;;;;;;4990901;28;20452;-70
2022/03/28 04:26:43;;;;;;;23.57;11.03;;;3.60;97.30;;;;;;4990917;28;20770;-70
2022/03/28 04:29:09;;;;;;;26.40;11.80;;;3.60;97.30;;;;;;4991099;28;20269;-70
2022/03/28 04:31:37;;;;;;;18.37;11.20;;;3.60;97.30;;;;;;4992277;28;20176;-70
2022/03/28 04:34:03;;;;;;;23.70;11.30;;;3.60;97.30;;;;;;5007157;28;20469;-70
2022/03/28 04:36:28;;;;;;;27.27;11.33;;;3.50;97.30;;;;;;4992044;28;20414;-70
2022/03/28 04:38:54;;;;;;;23.43;11.20;;;3.50;97.30;;;;;;4992223;28;20174;-70
2022/03/28 04:41:19;;;;;;;24.93;11.83;;;3.50;97.30;;;;;;5007185;28;20182;-70
2022/03/28 04:43:45;;;;;;;27.67;11.30;;;3.50;97.30;;;;;;5007022;28;20292;-71
2022/03/28 04:46:11;;;;;;;28.17;12.43;;;3.40;97.30;;;;;;5007167;28;20190;-70
2022/03/28 04:48:37;;;;;;;28.53;11.90;;;3.40;97.30;;;;;;4990863;28;20182;-70
2022/03/28 04:51:03;;;;;;;24.37;10.90;;;3.40;97.30;;;;;;4990743;28;20949;-70
2022/03/28 04:53:28;;;;;;;28.40;11.60;;;3.40;97.30;;;;;;4991867;28;20216;-71
2022/03/28 04:55:54;;;;;;;28.17;11.40;;;3.40;97.30;;;;;;5006825;28;20182;-70
2022/03/28 04:58:19;;;;;;;24.43;11.23;;;3.40;97.30;;;;;;5006948;28;20189;-71
2022/03/28 05:00:45;;;;;;;25.90;12.30;;;3.40;97.30;;;;;;4990296;28;20935;-70
2022/03/28 05:03:11;;;;;;;23.30;11.53;;;3.40;97.30;;;;;;5006588;28;20197;-70
2022/03/28 05:05:36;;;;;;;30.80;12.70;;;3.40;97.30;;;;;;4987383;28;20185;-70
2022/03/28 05:08:02;;;;;;;33.90;13.30;;;3.40;97.30;;;;;;4991753;28;20198;-70
2022/03/28 05:10:27;;;;;;;34.20;16.13;;;3.40;97.30;;;;;;4991531;28;20185;-70
2022/03/28 05:12:53;;;;;;;48.97;19.07;;;3.40;97.30;;;;;;4991469;28;20241;-70
2022/03/28 05:15:19;;;;;;;43.07;17.10;;;3.40;97.30;;;;;;4991260;28;20204;-71
2022/03/28 05:17:44;;;;;;;37.97;15.13;;;3.40;97.30;;;;;;4990776;28;20175;-71
2022/03/28 05:20:10;;;;;;;33.17;14.90;;;3.40;97.30;;;;;;4991548;28;20185;-70
2022/03/28 05:22:36;;;;;;;89.57;31.53;;;3.40;97.30;;;;;;4991496;28;20249;-71
2022/03/28 05:25:02;;;;;;;41.60;16.00;;;3.40;97.30;;;;;;4991328;28;20936;-70
2022/03/28 05:27:28;;;;;;;48.57;17.40;;;3.40;97.30;;;;;;4990351;28;20185;-70
2022/03/28 05:29:53;;;;;;;170.73;52.17;;;3.40;97.30;;;;;;4991353;28;20412;-71
2022/03/28 05:32:19;;;;;;;63.10;25.00;;;3.50;97.30;;;;;;4991369;28;20174;-70
2022/03/28 05:34:45;;;;;;;53.83;21.20;;;3.40;97.30;;;;;;4991485;28;20229;-70
2022/03/28 05:37:17;;;;;;;35.70;13.97;;;3.40;97.30;;;;;;4991464;28;20577;-71
2022/03/28 05:39:45;;;;;;;45.57;16.37;;;3.40;97.30;;;;;;4991114;28;20408;-71
2022/03/28 05:42:11;;;;;;;35.47;14.50;;;3.50;97.30;;;;;;4991107;28;20421;-71
2022/03/28 05:44:39;;;;;;;33.77;13.93;;;3.50;97.30;;;;;;4990748;28;20444;-71
2022/03/28 05:47:05;;;;;;;40.70;17.03;;;3.50;97.30;;;;;;4991275;28;20181;-70
2022/03/28 05:49:30;;;;;;;48.83;20.47;;;3.60;97.30;;;;;;4982158;28;20489;-73
2022/03/28 05:51:56;;;;;;;39.60;17.10;;;3.70;97.30;;;;;;4987742;28;20436;-70
2022/03/28 05:54:22;;;;;;;54.13;20.87;;;3.70;97.30;;;;;;4990855;28;20512;-71
2022/03/28 05:56:48;;;;;;;80.97;30.40;;;3.80;97.30;;;;;;4989304;28;20508;-72
2022/03/28 05:59:14;;;;;;;67.40;27.70;;;3.90;97.30;;;;;;5005948;28;20181;-73
2022/03/28 06:01:40;;;;;;;69.37;26.50;;;3.90;97.30;;;;;;4988974;28;20453;-72
2022/03/28 06:04:05;;;;;;;70.57;27.43;;;4.00;97.30;;;;;;4990637;28;20451;-71
2022/03/28 06:06:34;;;;;;;62.60;24.60;;;4.10;97.30;;;;;;4989672;28;20260;-74
2022/03/28 06:09:00;;;;;;;73.73;27.47;;;4.20;97.30;;;;;;4990160;28;20618;-74
2022/03/28 06:11:26;;;;;;;74.37;27.73;;;4.30;97.30;;;;;;4990761;28;20417;-72
2022/03/28 06:13:53;;;;;;;91.17;35.13;;;4.50;97.30;;;;;;4990276;28;20449;-72
2022/03/28 06:16:19;;;;;;;78.83;30.53;;;4.70;97.30;;;;;;4989217;28;20205;-71
2022/03/28 06:18:45;;;;;;;94.13;32.10;;;4.80;97.30;;;;;;4990268;28;20413;-72
2022/03/28 06:21:10;;;;;;;81.37;30.03;;;5.00;97.30;;;;;;5005397;28;20491;-72
2022/03/28 06:23:36;;;;;;;91.20;30.83;;;5.20;97.30;;;;;;5005332;28;20208;-72
2022/03/28 06:26:03;;;;;;;92.63;32.90;;;5.30;97.30;;;;;;4990201;28;20182;-72
2022/03/28 06:28:29;;;;;;;82.73;31.20;;;5.50;97.30;;;;;;4989932;28;20224;-73
2022/03/28 06:30:55;;;;;;;92.70;32.10;;;5.70;97.30;;;;;;4994247;28;20444;-75
2022/03/28 06:33:21;;;;;;;92.17;31.77;;;5.80;97.30;;;;;;4993050;28;20488;-75
2022/03/28 06:35:47;;;;;;;98.77;34.23;;;6.00;97.30;;;;;;4994347;28;21000;-75
2022/03/28 06:38:12;;;;;;;98.93;34.13;;;6.10;97.30;;;;;;4994506;28;20413;-73
2022/03/28 06:40:38;;;;;;;84.60;30.93;;;6.30;97.30;;;;;;4993081;28;20178;-72
2022/03/28 06:43:04;;;;;;;88.40;34.80;;;6.50;97.30;;;;;;4993390;28;20185;-72
2022/03/28 06:45:30;;;;;;;87.93;32.70;;;6.70;97.30;;;;;;5009443;28;20178;-72
2022/03/28 06:47:56;;;;;;;84.90;32.53;;;6.90;97.30;;;;;;4994297;28;20910;-71
2022/03/28 06:50:24;;;;;;;81.70;31.40;;;7.10;97.30;;;;;;4994613;28;20413;-72
2022/03/28 06:52:50;;;;;;;77.57;31.93;;;7.30;97.30;;;;;;4992784;28;20549;-72
2022/03/28 06:55:16;;;;;;;79.73;29.93;;;7.50;97.30;;;;;;4997267;28;20530;-73
2022/03/28 06:57:41;;;;;;;77.50;28.90;;;7.70;97.30;;;;;;4992374;28;20421;-73
2022/03/28 07:00:10;;;;;;;84.20;32.30;;;7.90;97.30;;;;;;4984031;28;20180;-74
2022/03/28 07:02:36;;;;;;;74.37;29.70;;;8.10;97.30;;;;;;4984656;28;20229;-75
2022/03/28 07:05:06;;;;;;;72.67;28.47;;;8.30;97.30;;;;;;4992642;28;20445;-76
2022/03/28 07:07:38;;;;;;;75.07;30.13;;;8.40;97.30;;;;;;4993119;28;20474;-76
2022/03/28 07:10:04;;;;;;;67.77;26.10;;;8.60;97.30;;;;;;4992072;28;20797;-76
2022/03/28 07:12:30;;;;;;;72.37;28.50;;;8.70;97.30;;;;;;4993685;28;20427;-74
2022/03/28 07:14:55;;;;;;;62.80;25.73;;;8.90;97.30;;;;;;4991940;28;21035;-76
2022/03/28 07:17:21;;;;;;;67.50;26.00;;;9.00;97.30;;;;;;4993170;28;20170;-76
2022/03/28 07:19:47;;;;;;;63.20;27.83;;;9.10;97.30;;;;;;5008396;28;20182;-71
2022/03/28 07:22:12;;;;;;;78.40;29.60;;;9.20;97.30;;;;;;4991919;28;20734;-74
2022/03/28 07:24:38;;;;;;;71.10;29.40;;;9.40;97.30;;;;;;4992866;28;20452;-73
2022/03/28 07:27:04;;;;;;;61.20;26.30;;;9.50;97.30;;;;;;5008382;28;20437;-73
2022/03/28 07:29:29;;;;;;;64.30;28.30;;;9.60;97.30;;;;;;5007164;28;20177;-73
2022/03/28 07:31:56;;;;;;;61.23;26.70;;;9.70;97.30;;;;;;5000390;28;20174;-71
2022/03/28 07:34:32;;;;;;;68.07;27.03;;;9.80;97.30;;;;;;4992973;28;20205;-70
2022/03/28 07:36:59;;;;;;;68.37;28.10;;;9.90;97.30;;;;;;4991924;28;20417;-71
2022/03/28 07:39:25;;;;;;;61.60;28.20;;;10.00;97.30;;;;;;4991436;28;20418;-71
2022/03/28 07:41:51;;;;;;;59.77;24.53;;;10.20;97.30;;;;;;4990981;28;20487;-73
2022/03/28 07:44:18;;;;;;;61.73;27.50;;;10.30;97.30;;;;;;4992519;28;20440;-73
2022/03/28 07:46:44;;;;;;;62.47;27.50;;;10.50;97.30;;;;;;4991963;28;20413;-71
2022/03/28 07:49:16;;;;;;;63.33;26.87;;;10.60;97.30;;;;;;4990892;28;20782;-71
2022/03/28 07:51:42;;;;;;;60.43;25.70;;;10.70;97.30;;;;;;4991146;28;20946;-73
2022/03/28 07:54:07;;;;;;;61.40;26.90;;;10.90;97.30;;;;;;5007606;28;20468;-71
2022/03/28 07:56:33;;;;;;;55.73;25.73;;;11.10;97.30;;;;;;4992369;28;20417;-71
2022/03/28 07:58:59;;;;;;;55.90;22.87;;;11.20;97.30;;;;;;4992490;28;20170;-73
2022/03/28 08:01:25;;;;;;;55.67;24.23;;;11.30;97.30;;;;;;4991077;28;20325;-72
2022/03/28 08:03:51;;;;;;;57.40;23.90;;;11.40;97.30;;;;;;4992698;28;20252;-73
2022/03/28 08:06:17;;;;;;;49.13;24.70;;;11.50;97.30;;;;;;5007861;28;20452;-73
2022/03/28 08:08:42;;;;;;;55.53;24.97;;;11.50;97.30;;;;;;4990899;28;20186;-72
2022/03/28 08:11:09;;;;;;;54.47;23.90;;;11.70;97.30;;;;;;4992033;28;20178;-72
2022/03/28 08:13:35;;;;;;;51.33;23.23;;;11.90;97.30;;;;;;4991909;28;20190;-72
2022/03/28 08:16:01;;;;;;;47.50;23.50;;;12.00;97.30;;;;;;4991294;28;20449;-73
2022/03/28 08:18:26;;;;;;;53.90;24.43;;;12.10;97.30;;;;;;4992307;28;20782;-71
2022/03/28 08:20:53;;;;;;;51.10;22.90;;;12.40;97.30;;;;;;4991160;28;20184;-74
2022/03/28 08:23:22;;;;;;;53.67;24.83;;;12.50;97.10;;;;;;4990887;28;20193;-72
2022/03/28 08:25:49;;;;;;;51.47;22.97;;;12.70;97.20;;;;;;4990960;28;20455;-73
2022/03/28 08:28:15;;;;;;;42.37;21.50;;;12.70;96.20;;;;;;4990542;28;20421;-73
2022/03/28 08:30:41;;;;;;;52.00;21.40;;;12.70;96.20;;;;;;4999194;28;20418;-75
2022/03/28 08:33:07;;;;;;;45.30;21.17;;;12.80;96.30;;;;;;5001902;28;20835;-74
2022/03/28 08:35:33;;;;;;;47.20;21.20;;;12.80;96.10;;;;;;5006601;28;20601;-75
2022/03/28 08:37:58;;;;;;;48.97;22.70;;;12.90;95.70;;;;;;4998126;28;20413;-74
2022/03/28 08:40:24;;;;;;;48.13;23.50;;;13.00;95.70;;;;;;4987151;28;20174;-73
2022/03/28 08:42:50;;;;;;;52.93;23.70;;;13.10;96.30;;;;;;4991295;28;20178;-73
2022/03/28 08:45:16;;;;;;;43.83;22.60;;;13.40;95.80;;;;;;4990482;28;20181;-73
2022/03/28 08:47:45;;;;;;;47.17;22.47;;;13.60;94.90;;;;;;5001559;28;20174;-74
2022/03/28 08:50:12;;;;;;;43.43;22.50;;;13.80;94.60;;;;;;5009975;28;21161;-73
2022/03/28 08:52:40;;;;;;;44.87;22.50;;;13.90;93.80;;;;;;5025877;28;20424;-74
2022/03/28 08:55:08;;;;;;;44.07;21.23;;;14.00;93.60;;;;;;5026453;28;20456;-75
2022/03/28 08:57:33;;;;;;;41.00;20.17;;;14.20;93.80;;;;;;5006716;28;20482;-74
2022/03/28 08:59:59;;;;;;;37.97;20.60;;;14.40;93.10;;;;;;4990160;28;20500;-73
2022/03/28 09:02:41;;;;;;;38.43;19.20;;;14.50;92.80;;;;;;4989942;28;20228;-74
2022/03/28 09:05:10;;;;;;;36.57;19.47;;;14.60;92.20;;;;;;4999644;28;20201;-75
2022/03/28 09:07:36;;;;;;;40.80;19.13;;;14.80;92.00;;;;;;4990559;28;20413;-75
2022/03/28 09:10:06;;;;;;;34.13;18.03;;;14.90;92.00;;;;;;4990444;28;20938;-75
2022/03/28 09:12:33;;;;;;;36.13;18.00;;;14.90;91.10;;;;;;4989923;28;20551;-78
2022/03/28 09:15:02;;;;;;;35.07;18.00;;;15.00;91.40;;;;;;5005832;28;20461;-75
2022/03/28 09:17:28;;;;;;;30.53;16.80;;;14.90;91.00;;;;;;4990232;28;20437;-76
2022/03/28 09:20:01;;;;;;;32.13;16.97;;;15.00;91.50;;;;;;5006918;28;20540;-76
2022/03/28 09:22:29;;;;;;;29.43;17.37;;;15.20;90.90;;;;;;5006536;28;20483;-76
2022/03/28 09:25:04;;;;;;;32.50;16.73;;;15.30;90.80;;;;;;5008551;28;20436;-76
2022/03/28 09:27:33;;;;;;;36.23;17.10;;;15.40;90.00;;;;;;4970004;28;20461;-75
2022/03/28 09:30:14;;;;;;;35.30;18.00;;;15.50;90.50;;;;;;5004469;28;20487;-76
2022/03/28 09:32:44;;;;;;;35.90;17.10;;;15.50;89.80;;;;;;4991223;28;20766;-78
2022/03/28 09:35:21;;;;;;;37.93;19.20;;;15.60;89.90;;;;;;5006253;28;21056;-77
2022/03/28 09:37:53;;;;;;;32.20;17.53;;;15.60;89.80;;;;;;5009301;28;21043;-78
2022/03/28 09:40:32;;;;;;;31.90;15.17;;;15.80;90.20;;;;;;4990949;28;20405;-76
2022/03/28 09:42:59;;;;;;;31.70;14.10;;;16.00;89.10;;;;;;4984133;28;20420;-75
2022/03/28 09:45:29;;;;;;;32.10;15.57;;;16.10;88.90;;;;;;5008506;28;20428;-76
2022/03/28 09:48:00;;;;;;;26.30;14.60;;;16.30;88.90;;;;;;5022678;28;20425;-78
2022/03/28 09:50:31;;;;;;;24.77;14.30;;;16.50;88.00;;;;;;5008232;28;20413;-75
2022/03/28 09:53:08;;;;;;;28.97;15.17;;;16.60;88.10;;;;;;4989738;28;20963;-75
2022/03/28 09:55:47;;;;;;;33.70;15.83;;;16.70;87.40;;;;;;4999401;28;20512;-75
2022/03/28 09:58:42;;;;;;;24.43;13.60;;;16.90;87.40;;;;;;4990810;28;20404;-75
2022/03/28 10:03:36;;;;;;;24.90;13.30;;;16.80;85.90;;;;;;5043073;23;20488;-87
2022/03/28 10:06:04;;;;;;;26.27;12.90;;;16.60;86.20;;;;;;5012770;28;20668;-87
2022/03/28 10:08:33;;;;;;;25.50;13.80;;;16.50;86.30;;;;;;5007561;28;20417;-84
2022/03/28 10:10:59;;;;;;;25.10;13.70;;;16.60;86.40;;;;;;5011405;28;20412;-86
2022/03/28 10:13:26;;;;;;;23.67;13.37;;;16.80;86.70;;;;;;5016697;28;20522;-86
2022/03/28 10:15:52;;;;;;;22.60;12.97;;;16.90;85.80;;;;;;5011223;28;20490;-88
2022/03/28 10:18:18;;;;;;;27.40;13.50;;;17.00;86.40;;;;;;5019713;28;20462;-86
2022/03/28 10:20:46;;;;;;;25.87;13.17;;;17.10;85.70;;;;;;5017986;28;20436;-86
2022/03/28 10:23:16;;;;;;;25.93;14.20;;;17.20;86.10;;;;;;5016123;23;20241;-88
2022/03/28 10:25:43;;;;;;;24.23;13.43;;;17.20;85.00;;;;;;5012052;28;20453;-83
2022/03/28 10:28:09;;;;;;;22.20;12.10;;;17.30;86.40;;;;;;5017177;28;20421;-85
2022/03/28 10:30:35;;;;;;;27.23;12.37;;;17.40;85.20;;;;;;5001548;28;20419;-84
2022/03/28 10:33:08;;;;;;;24.53;12.67;;;17.40;84.50;;;;;;5013690;28;20435;-84
2022/03/28 10:35:34;;;;;;;23.30;12.40;;;17.40;84.90;;;;;;5019656;28;20424;-84
2022/03/28 10:38:18;;;;;;;20.70;11.30;;;17.40;84.90;;;;;;5007050;28;20447;-87
2022/03/28 10:41:02;;;;;;;22.40;12.00;;;17.50;84.60;;;;;;5012319;28;20840;-84
2022/03/28 10:43:29;;;;;;;20.80;11.73;;;17.50;84.30;;;;;;5005497;28;20922;-86
2022/03/28 10:45:57;;;;;;;18.53;9.73;;;17.70;83.80;;;;;;4992905;28;20448;-85
2022/03/28 10:48:43;;;;;;;21.37;12.30;;;17.80;84.30;;;;;;5012037;28;20411;-88
2022/03/28 10:51:14;;;;;;;21.70;10.30;;;18.00;83.40;;;;;;5024721;28;20420;-83
2022/03/28 10:53:51;;;;;;;21.33;11.27;;;17.80;82.90;;;;;;5015747;28;20452;-83
2022/03/28 10:56:40;;;;;;;30.40;13.30;;;18.00;83.40;;;;;;5016524;28;20415;-86
2022/03/28 10:59:06;;;;;;;20.77;11.70;;;18.10;83.20;;;;;;5023410;28;20420;-87
2022/03/28 11:01:34;;;;;;;20.77;11.87;;;18.20;83.00;;;;;;5013234;28;20450;-87
2022/03/28 11:04:01;;;;;;;22.30;12.77;;;18.30;82.80;;;;;;5005966;28;20440;-87
2022/03/28 11:06:49;;;;;;;18.47;10.93;;;18.40;82.80;;;;;;5006993;28;20483;-86
2022/03/28 11:09:31;;;;;;;32.07;11.87;;;18.60;81.70;;;;;;5002209;28;20427;-84
2022/03/28 11:11:59;;;;;;;24.00;12.57;;;18.60;81.90;;;;;;4994374;28;20523;-87
2022/03/28 11:14:52;;;;;;;24.43;12.73;;;18.70;81.60;;;;;;4995618;28;20479;-85
2022/03/28 11:17:21;;;;;;;20.27;11.57;;;18.80;81.20;;;;;;5012134;28;20420;-84
2022/03/28 11:20:14;;;;;;;28.47;13.00;;;18.90;80.20;;;;;;5011193;28;20958;-86
2022/03/28 11:22:49;;;;;;;25.67;13.30;;;18.70;80.70;;;;;;5008017;28;20463;-87
2022/03/28 11:25:44;;;;;;;22.23;13.10;;;18.40;80.50;;;;;;5013650;28;20481;-86
2022/03/28 11:28:26;;;;;;;25.20;13.10;;;18.50;81.10;;;;;;5014622;28;20419;-87
2022/03/28 11:31:11;;;;;;;25.40;12.90;;;18.70;80.70;;;;;;5006269;28;20436;-87
2022/03/28 11:33:43;;;;;;;31.40;13.70;;;19.00;80.60;;;;;;5022031;28;20454;-85
2022/03/28 11:36:11;;;;;;;21.67;12.37;;;19.30;80.60;;;;;;5030880;28;20407;-85
2022/03/28 11:38:42;;;;;;;21.30;11.87;;;19.20;78.70;;;;;;5030353;28;20419;-85
2022/03/28 11:41:12;;;;;;;26.67;13.30;;;19.20;79.30;;;;;;5030656;28;20419;-87
2022/03/28 11:43:40;;;;;;;26.83;12.77;;;19.30;79.60;;;;;;5019513;28;20432;-87
2022/03/28 11:46:20;;;;;;;26.70;13.00;;;19.50;80.10;;;;;;5009520;28;20579;-86
2022/03/28 11:48:59;;;;;;;23.20;12.30;;;19.50;79.10;;;;;;5008986;28;20420;-86
2022/03/28 11:51:28;;;;;;;26.40;13.47;;;19.40;78.80;;;;;;5004172;28;20455;-87
2022/03/28 11:53:58;;;;;;;24.73;13.70;;;19.30;78.90;;;;;;5006397;28;20963;-85
2022/03/28 11:56:30;;;;;;;25.83;13.57;;;19.50;79.00;;;;;;5005294;28;20546;-86
2022/03/28 11:59:04;;;;;;;26.17;13.90;;;19.60;78.40;;;;;;5008632;28;20412;-86
2022/03/28 12:01:31;;;;;;;25.83;12.57;;;19.70;77.70;;;;;;5005389;28;20545;-87
2022/03/28 12:03:58;;;;;;;21.10;12.67;;;19.90;78.30;;;;;;5009979;28;20954;-85
2022/03/28 12:06:31;;;;;;;28.37;14.87;;;20.10;77.90;;;;;;5010096;28;20965;-86
2022/03/28 12:08:57;;;;;;;23.47;12.67;;;20.20;77.90;;;;;;5005434;28;20984;-84
2022/03/28 12:11:24;;;;;;;28.33;15.07;;;20.40;77.70;;;;;;5019719;28;20988;-87
2022/03/28 12:13:52;;;;;;;27.23;14.60;;;20.50;77.00;;;;;;5029234;28;20484;-88
2022/03/28 12:16:19;;;;;;;22.20;12.77;;;20.40;76.50;;;;;;5029047;28;20561;-85
2022/03/28 12:18:45;;;;;;;22.80;12.20;;;20.40;77.30;;;;;;5028606;28;20408;-86
2022/03/28 12:21:10;;;;;;;20.67;11.30;;;20.60;75.90;;;;;;5004689;28;20451;-86
2022/03/28 12:23:37;;;;;;;22.43;12.60;;;20.70;76.60;;;;;;5008821;28;20286;-85
2022/03/28 12:26:04;;;;;;;26.13;13.97;;;20.90;76.00;;;;;;5010206;28;20266;-88
2022/03/28 12:28:34;;;;;;;22.80;12.40;;;21.00;75.30;;;;;;5009392;28;20425;-86
2022/03/28 12:31:05;;;;;;;22.07;12.13;;;21.10;74.80;;;;;;5007959;28;20435;-86
2022/03/28 12:33:33;;;;;;;23.47;13.47;;;21.10;74.20;;;;;;5008570;28;20558;-86
2022/03/28 12:36:08;;;;;;;22.70;10.70;;;21.20;74.30;;;;;;5024424;28;20449;-86
2022/03/28 12:38:36;;;;;;;20.83;10.73;;;21.30;76.10;;;;;;4998905;28;20490;-87
2022/03/28 12:41:06;;;;;;;22.00;10.43;;;21.40;73.80;;;;;;4991872;28;20428;-88